Valley Peak, Santa Cruz Island Reserve, California Weather observations

Data are for 10 minute period ending at time listed.
 Day   Time   Solar   Ave.   Ave.  Ave.  Vector  Max.   Baro.   Total    
  of    of     Rad.   Air    Rel.  Wind   Wind   Wind  Press.  Precip.   
Year   Day            Temp.  Hum.  Speed  Dir.   Gust                    
2016   (PST)  Kw/m2    F      %     mph   deg.    mph    mb.     in.     
-------------------------------------------------------------------------
 151   17:30   0.24   59.8    80    6.7    32     9.9   963.0    0.00 
 151   17:40   0.21   59.2    81    7.1    25     8.9   963.1    0.00 
 151   17:50   0.18   58.8    82    6.1    23     8.2   963.1    0.00 
 151   18:00   0.14   57.7    84    5.1    17     6.2   963.1    0.00 
 151   18:10   0.12   57.7    85    2.7    17     4.6   963.1    0.00 
 151   18:20   0.09   59.5    80    1.9    19     3.4   963.2    0.00 
 151   18:30   0.08   60.1    78    3.2   216     5.7   963.3    0.00 
 151   18:40   0.06   58.7    81    2.7   210     4.5   963.3    0.00 
 151   18:50   0.04   57.4    84    3.4   218     4.9   963.4    0.00 
 151   19:00   0.01   56.0    88    2.8   235     3.7   963.4    0.00 
 151   19:10   0.01   54.9    90    2.9   267     4.1   963.4    0.00 
 151   19:20   0.00   54.3    92    3.7   224     5.1   963.4    0.00 
 151   19:30   0.00   54.0    94    3.9   190     5.0   963.4    0.00 
 151   19:40   0.00   53.5    95    3.1   150     5.0   963.5    0.00 
 151   19:50   0.00   53.3    96    2.6   148     4.7   963.6    0.00 
 151   20:00   0.00   53.3    96    1.7   113     3.3   963.6    0.00 
 151   20:10   0.00   53.2    96    1.3   148     3.6   963.6    0.00 
 151   20:20   0.00   53.0    97    2.5   160     4.2   963.6    0.00 
 151   20:30   0.00   52.8    98    1.2   195     3.9   963.7    0.00 
 151   20:40   0.00   52.8    97    1.7   343     3.7   963.7    0.00 
 151   20:50   0.00   52.5    97    3.2   314     4.7   963.7    0.00 
 151   21:00   0.00   53.6    93    2.6   326     3.1   963.6    0.00 
 151   21:10   0.00   53.7    91    1.5   341     4.7   963.6    0.00 
 151   21:20   0.00   53.9    90    2.6    14     4.8   963.5    0.00 
 151   21:30   0.00   52.9    94    1.8   126     4.2   963.5    0.00 
 151   21:40   0.00   52.6    96    2.0    98     3.4   963.5    0.00 
 151   21:50   0.00   52.6    96    1.7    87     3.3   963.4    0.00 
 151   22:00   0.00   52.6    96    1.9   126     3.7   963.3    0.00 
 151   22:10   0.00   52.6    97    3.5   132     5.0   963.2    0.00 
 151   22:20   0.00   52.4    97    3.2   134     6.1   963.2    0.00 
 151   22:30   0.00   52.4    97    3.4   134     5.3   963.1    0.00 
 151   22:40   0.00   52.4    97    4.2   154     6.4   962.9    0.00 
 151   22:50   0.00   52.5    97    5.9   158     7.7   962.8    0.00 
 151   23:00   0.00   52.5    98    7.3   161     8.8   962.7    0.00 
 151   23:10   0.00   52.3    98    8.3   154    10.2   962.6    0.00 
 151   23:20   0.00   52.1    98    8.4   148    10.6   962.6    0.00 
 151   23:30   0.00   51.9    98    8.7   154    10.4   962.5    0.00 
 151   23:40   0.00   51.6    98    7.9   144     9.6   962.5    0.00 
 151   23:50   0.00   51.4    99    7.0   149     8.0   962.4    0.00 
 152    0:00   0.00   51.5    99    7.5   159     8.8   962.3    0.00 
 152    0:10   0.00   51.4    99    6.7   160     7.9   962.3    0.00 
 152    0:20   0.00   51.2    99    7.2   172     8.8   962.2    0.00 
 152    0:30   0.00   50.9    99    6.8   151     8.7   962.1    0.00 
 152    0:40   0.00   51.6   100    7.2   144     8.4   962.0    0.00 
 152    0:50   0.00   52.2   100    6.4   148     7.2   962.0    0.00 
 152    1:00   0.00   51.7    99    5.6   164     6.9   962.0    0.00 
 152    1:10   0.00   51.4   100    4.6   154     5.7   961.9    0.00 
 152    1:20   0.00   52.0   100    5.3   136     6.1   961.8    0.00 
 152    1:30   0.00   51.1    99    5.6   129     6.6   961.8    0.00 
 152    1:40   0.00   50.6   100    6.8   137     8.8   961.7    0.00 
 152    1:50   0.00   51.0   100    7.3   146     9.6   961.6    0.00 
 152    2:00   0.00   51.2   100    7.5   150     9.6   961.6    0.00 
 152    2:10   0.00   51.3   100    7.6   152    10.3   961.6    0.00 
 152    2:20   0.00   51.3   100    7.0   151     9.7   961.6    0.00 
 152    2:30   0.00   51.3   100    7.2   152     9.6   961.6    0.00 
 152    2:40   0.00   51.3   100    7.2   146     9.3   961.5    0.00 
 152    2:50   0.00   51.3   100    6.6   144     9.3   961.6    0.00 
 152    3:00   0.00   51.2   100    7.3   149     9.8   961.6    0.00 
 152    3:10   0.00   51.2   100    7.5   142    10.4   961.6    0.00 
 152    3:20   0.00   51.4   100    6.8   140    12.1   961.6    0.00 
 152    3:30   0.00   51.4   100    7.6   138    12.5   961.5    0.00 
 152    3:40   0.00   51.4   100    7.5   142    11.9   961.5    0.00 
 152    3:50   0.00   51.4   100    7.5   136    11.0   961.5    0.00 
 152    4:00   0.00   51.4   100    7.3   137    10.4   961.5    0.00 
 152    4:10   0.00   51.4   100    7.7   141    11.2   961.5    0.00 
 152    4:20   0.00   51.4   100    7.4   144    10.4   961.5    0.00 
 152    4:30   0.00   51.3   100    7.9   141    10.9   961.6    0.00 
 152    4:40   0.00   51.3   100    7.2   141    10.7   961.6    0.00 
 152    4:50   0.00   51.4   100    7.0   135    10.4   961.7    0.00 
 152    5:00   0.00   51.6   100    6.5   137     9.2   961.8    0.00 
 152    5:10   0.01   51.6   100    5.4   129     7.8   961.8    0.00 
 152    5:20   0.04   51.6   100    4.9   118     6.8   961.9    0.00 
 152    5:30   0.05   51.6   100    4.6   132     7.0   961.9    0.00 
 152    5:40   0.05   51.9   100    4.8   128     7.4   962.0    0.00 
 152    5:50   0.06   52.1   100    4.7   116     8.3   962.1    0.00 
 152    6:00   0.06   52.3   100    6.8   109    10.6   962.2    0.00 
 152    6:10   0.08   52.7    99    9.6    99    14.1   962.3    0.00 
 152    6:20   0.08   52.9    99    8.6   102    13.0   962.4    0.00 
 152    6:30   0.09   53.0    99    8.6   125    12.5   962.3    0.00 
 152    6:40   0.11   53.0    99    7.7   130    13.7   962.4    0.00 
 152    6:50   0.14   53.0    99    8.6   133    14.5   962.4    0.00 
 152    7:00   0.16   53.3    99    6.1   134    12.4   962.5    0.00 
 152    7:10   0.17   53.4    99    6.3   140    11.5   962.6    0.00 
 152    7:20   0.17   53.5    99    7.6   128    12.5   962.7    0.00 
 152    7:30   0.20   54.0    99    6.1   133    10.1   962.7    0.00 
 152    7:40   0.22   54.5    99    5.5   136     9.6   962.7    0.00 
 152    7:50   0.22   54.7    99    4.9   138     9.5   962.7    0.00 
 152    8:00   0.20   55.2    98    4.7   130     9.3   962.9    0.00 
 152    8:10   0.22   55.2    98    3.8   136     8.6   962.9    0.00 
 152    8:20   0.24   55.6    98    4.0   130     9.1   962.8    0.00 
 152    8:30   0.25   55.7    98    3.2   134     7.2   962.9    0.00 
 152    8:40   0.27   55.9    98    3.7   126     6.2   962.9    0.00 
 152    8:50   0.33   56.5    98    4.4   102     7.4   962.8    0.00 
 152    9:00   0.38   57.4    98    3.1    71     5.8   962.8    0.00 
 152    9:10   0.39   58.7    97    2.9    59     6.4   962.7    0.00 
 152    9:20   0.36   59.1    95    2.3   110     5.7   962.6    0.00 
 152    9:30   0.39   59.8    93    3.0   120     5.3   962.6    0.00 
 152    9:40   0.38   60.2    90    3.4   117     6.1   962.7    0.00 
 152    9:50   0.40   60.2    88    2.5   139     6.1   962.7    0.00 
 152   10:00   0.47   61.0    85    3.4   122     6.5   962.7    0.00 
 152   10:10   0.51   62.8    81    3.8   127     7.4   962.6    0.00 
 152   10:20   0.50   63.4    78    3.6   138     7.5   962.7    0.00 
 152   10:30   0.54   63.7    77    4.7   132     9.0   962.7    0.00 
 152   10:40   0.57   64.1    76    3.5   138     7.1   962.7    0.00 
 152   10:50   0.57   64.3    75    3.6   132     6.8   962.7    0.00 
 152   11:00   0.66   64.7    74    3.5   135     7.2   962.6    0.00 
 152   11:10   0.97   66.6    71    3.9   119     7.7   962.5    0.00 
 152   11:20   0.70   67.3    69    3.2    95     7.2   962.5    0.00 
 152   11:30   0.86   67.1    69    2.6    58     6.1   962.5    0.00 
 152   11:40   0.77   69.1    65    4.1    74     7.5   962.5    0.00 
 152   11:50   0.66   67.9    67    4.6    74     8.9   962.5    0.00 
 152   12:00   0.83   68.3    66    3.4    58     7.2   962.5    0.00 
 152   12:10   0.71   68.1    65    3.5    53     7.4   962.3    0.00 
 152   12:20   0.64   66.4    68    4.8    40     9.0   962.3    0.00 
 152   12:30   0.92   65.5    71    4.0    57     8.3   962.2    0.00 
 152   12:40   0.73   69.2    63    3.8    72     6.7   962.1    0.00 
 152   12:50   0.66   68.2    65    2.6    71     6.3   962.1    0.00 
 152   13:00   0.76   67.7    66    4.1    75     7.5   962.1    0.00 
 152   13:10   0.89   68.3    65    3.3    56     7.9   962.0    0.00 
 152   13:20   0.83   67.0    68    3.8    46     7.2   962.0    0.00 
 152   13:30   0.81   66.9    68    3.0    59     6.1   962.0    0.00 
 152   13:40   0.75   66.5    68    2.1    54     5.6   961.9    0.00 
 152   13:50   0.89   69.0    63    3.2    73     6.4   961.8    0.00 
 152   14:00   0.60   69.4    62    3.7    91     6.3   961.8    0.00 
 152   14:10   0.56   67.4    66    3.2    83     6.1   961.8    0.00 
 152   14:20   0.76   68.1    64    2.9    58     5.8   961.6    0.00 
 152   14:30   0.77   69.1    63    3.3    54     6.0   961.6    0.00 
 152   14:40   0.75   68.0    65    3.2    44     6.8   961.5    0.00 
 152   14:50   0.69   66.2    68    5.7    38     9.0   961.5    0.00 
 152   15:00   0.72   64.3    72    6.4    37     9.4   961.5    0.00 
 152   15:10   0.59   63.6    74    7.4    34    11.0   961.4    0.00 
 152   15:20   0.42   60.7    80    8.6    36    11.9   961.2    0.00 
 152   15:30   0.51   61.1    80    6.7    40     9.9   961.1    0.00 
 152   15:40   0.57   62.7    76    5.4    34     7.9   961.0    0.00 
 152   15:50   0.55   62.7    76    5.4    43     7.9   961.0    0.00 
 152   16:00   0.55   63.9    73    4.2    43     6.8   960.9    0.00 
 152   16:10   0.48   63.9    73    4.3    40     6.9   960.9    0.00 
 152   16:20   0.43   62.0    77    5.5    38     8.2   960.9    0.00 
 152   16:30   0.34   60.5    80    6.5    36     8.8   960.9    0.00 
 152   16:40   0.30   58.0    86    7.2    30     9.7   960.8    0.00 
 152   16:50   0.22   56.4    90    6.8    32     8.8   960.9    0.00 
 152   17:00   0.19   56.2    90    6.1    33     8.1   960.9    0.00 
 152   17:10   0.20   56.7    89    5.7    36     7.8   960.9    0.00 
 152   17:20   0.18   56.1    90    6.2    28     8.6   961.0    0.00 

Return to Valley Peak, Santa Cruz Island Reserve graphs page.


Western Regional Climate Center,wrcc@dri.edu